地図

経路データ

SID SEASON NUMBER BASIN SUBBASIN NAME ISO_TIME NATURE LAT LON WMO_WIND WMO_PRES WMO_AGENCY TRACK_TYPE DIST2LAND LANDFALL IFLAG USA_AGENCY USA_ATCF_ID USA_LAT USA_LON USA_RECORD USA_STATUS USA_WIND USA_PRES USA_SSHS USA_R34_NE USA_R34_SE USA_R34_SW USA_R34_NW USA_R50_NE USA_R50_SE USA_R50_SW USA_R50_NW USA_R64_NE USA_R64_SE USA_R64_SW USA_R64_NW USA_POCI USA_ROCI USA_RMW USA_EYE TOKYO_LAT TOKYO_LON TOKYO_GRADE TOKYO_WIND TOKYO_PRES TOKYO_R50_DIR TOKYO_R50_LONG TOKYO_R50_SHORT TOKYO_R30_DIR TOKYO_R30_LONG TOKYO_R30_SHORT TOKYO_LAND CMA_LAT CMA_LON CMA_CAT CMA_WIND CMA_PRES HKO_LAT HKO_LON HKO_CAT HKO_WIND HKO_PRES NEWDELHI_LAT NEWDELHI_LON NEWDELHI_GRADE NEWDELHI_WIND NEWDELHI_PRES NEWDELHI_CI NEWDELHI_DP NEWDELHI_POCI REUNION_LAT REUNION_LON REUNION_TYPE REUNION_WIND REUNION_PRES REUNION_TNUM REUNION_CI REUNION_RMW REUNION_R34_NE REUNION_R34_SE REUNION_R34_SW REUNION_R34_NW REUNION_R50_NE REUNION_R50_SE REUNION_R50_SW REUNION_R50_NW REUNION_R64_NE REUNION_R64_SE REUNION_R64_SW REUNION_R64_NW BOM_LAT BOM_LON BOM_TYPE BOM_WIND BOM_PRES BOM_TNUM BOM_CI BOM_RMW BOM_R34_NE BOM_R34_SE BOM_R34_SW BOM_R34_NW BOM_R50_NE BOM_R50_SE BOM_R50_SW BOM_R50_NW BOM_R64_NE BOM_R64_SE BOM_R64_SW BOM_R64_NW BOM_ROCI BOM_POCI BOM_EYE BOM_POS_METHOD BOM_PRES_METHOD NADI_LAT NADI_LON NADI_CAT NADI_WIND NADI_PRES WELLINGTON_LAT WELLINGTON_LON WELLINGTON_WIND WELLINGTON_PRES DS824_LAT DS824_LON DS824_STAGE DS824_WIND DS824_PRES TD9636_LAT TD9636_LON TD9636_STAGE TD9636_WIND TD9636_PRES TD9635_LAT TD9635_LON TD9635_WIND TD9635_PRES TD9635_ROCI NEUMANN_LAT NEUMANN_LON NEUMANN_CLASS NEUMANN_WIND NEUMANN_PRES MLC_LAT MLC_LON MLC_CLASS MLC_WIND MLC_PRES USA_GUST BOM_GUST BOM_GUST_PER REUNION_GUST REUNION_GUST_PER USA_SEAHGT USA_SEARAD_NE USA_SEARAD_SE USA_SEARAD_SW USA_SEARAD_NW STORM_SPEED STORM_DIR
1950206N22143 1950 43 WP MM HELENE 1950-07-24 18:00:00 TS 21.6000 142.900 main 1490 1394 ______________ -1 21 308
1950206N22143 1950 43 WP MM HELENE 1950-07-24 21:00:00 TS 22.2314 142.027 main 1390 1357 ______________ -1 14 305
1950206N22143 1950 43 WP MM HELENE 1950-07-25 00:00:00 TS 22.3857 141.700 main 1357 1283 O________OOO__ jtwc_wp WP061950 22.0000 142.000 30 -1 22.0000 142.000 TC 30 22.0000 142.000 1 30 22.0000 142.000 30 999 120 10 326
1950206N22143 1950 43 WP MM HELENE 1950-07-25 03:00:00 TS 23.0599 141.414 main 1273 1213 P________PPP__ WP061950 22.8576 141.719 30 -1 22.8576 141.719 TC 30 22.5431 141.653 1 30 22.8576 141.719 30 999 150 13 339
1950206N22143 1950 43 WP MM HELENE 1950-07-25 06:00:00 TS 23.6191 141.182 main 1213 1170 O________OPO__ jtwc_wp WP061950 23.5000 141.400 30 -1 23.5000 141.400 TC 30 23.0687 141.304 1 30 23.5000 141.400 30 999 180 10 333
1950206N22143 1950 43 WP MM HELENE 1950-07-25 09:00:00 TS 23.9609 140.904 main 1160 1127 P________PPP__ WP061950 23.8024 141.022 30 -1 23.8024 141.022 TC 30 23.5599 140.953 1 30 23.8024 141.022 30 999 180 8 319
1950206N22143 1950 43 WP MM HELENE 1950-07-25 12:00:00 TS 24.2600 140.580 main 1117 1070 O________OOO__ jtwc_wp WP061950 24.0000 140.600 30 -1 24.0000 140.600 TC 30 24.0000 140.600 1 30 24.0000 140.600 30 999 180 9 318
1950206N22143 1950 43 WP MM HELENE 1950-07-25 15:00:00 TS 24.6561 140.230 main 1060 1018 P________PPP__ WP061950 24.3775 140.150 30 -1 24.3775 140.150 TC 30 24.3829 140.242 1 30 24.3775 140.150 30 999 180 10 321
1950206N22143 1950 43 WP MM HELENE 1950-07-25 18:00:00 TS 25.0691 139.871 main 1007 965 O________OPO__ jtwc_wp WP061950 24.8000 139.700 30 -1 24.8000 139.700 TC 30 24.7456 139.857 1 30 24.8000 139.700 30 999 180 10 322
1950206N22143 1950 43 WP MM HELENE 1950-07-25 21:00:00 TS 25.4336 139.564 main 965 909 P________PPP__ WP061950 25.1542 139.351 30 -1 25.1542 139.351 TC 30 25.1355 139.419 1 30 25.1542 139.351 30 998 150 10 322
1950206N22143 1950 43 WP MM HELENE 1950-07-26 00:00:00 TS 25.8800 139.160 main 898 815 O________OOO__ jtwc_wp WP061950 25.6000 138.900 30 -1 25.6000 138.900 TC 30 25.6000 138.900 1 30 25.6000 138.900 30 998 120 14 319
1950206N22143 1950 43 WP MM HELENE 1950-07-26 03:00:00 TS 26.5194 138.526 main 812 717 P________PPP__ WP061950 26.2633 138.139 30 -1 26.2633 138.139 TC 30 26.1957 138.290 1 32 26.2633 138.139 30 997 120 18 318
1950206N22143 1950 43 WP MM HELENE 1950-07-26 06:00:00 TS 27.2334 137.778 main 717 637 O________OPO__ jtwc_wp WP061950 27.0000 137.300 30 -1 27.0000 137.300 TC 30 26.8669 137.592 1 35 27.0000 137.300 30 997 120 19 317
1950206N22143 1950 43 WP MM HELENE 1950-07-26 09:00:00 TS 27.8800 137.086 main 626 548 P________PPP__ WP061950 27.6185 136.677 35 0 27.6185 136.677 TC 35 27.5796 136.823 1 37 27.6185 136.677 35 996 120 19 315
1950206N22143 1950 43 WP MM HELENE 1950-07-26 12:00:00 TS 28.5600 136.300 main 537 433 O________OOO__ jtwc_wp WP061950 28.3000 136.000 40 0 28.3000 136.000 TC 40 28.3000 136.000 2 40 28.3000 136.000 40 996 120 22 314
1950206N22143 1950 43 WP MM HELENE 1950-07-26 15:00:00 TS 29.3993 135.295 main 428 312 P________PPP__ WP061950 29.2309 135.025 40 0 29.2309 135.025 TC 40 29.0863 135.104 2 42 29.2309 135.025 40 995 120 24 311
1950206N22143 1950 43 WP MM HELENE 1950-07-26 18:00:00 TS 30.1432 134.193 main 303 196 O________OPO__ jtwc_wp WP061950 30.1000 134.000 40 0 30.1000 134.000 TC 40 29.8552 134.165 2 45 30.1000 134.000 40 994 120 22 306
1950206N22143 1950 43 WP MM HELENE 1950-07-26 21:00:00 TS 30.6786 133.273 main 196 113 P________PPP__ WP061950 30.6831 133.206 45 0 30.6831 133.206 TC 45 30.5211 133.242 2 47 30.6831 133.206 45 992 150 18 299
1950206N22143 1950 43 WP MM HELENE 1950-07-27 00:00:00 TS 31.0059 132.406 main 104 33 O________OOO__ jtwc_wp WP061950 31.0000 132.400 50 0 31.0000 132.400 TC 50 31.0000 132.400 2 50 31.0000 132.400 50 991 180 17 284
1950206N22143 1950 43 WP MM HELENE 1950-07-27 03:00:00 TS 31.0954 131.343 main 29 0 P________PPP__ WP061950 31.0698 131.243 50 0 31.0698 131.243 TC 50 31.1720 131.642 2 47 31.0698 131.243 50 990 210 17 271
1950206N22143 1950 43 WP MM HELENE 1950-07-27 06:00:00 TS 31.0408 130.473 main 19 19 O________OPO__ jtwc_wp WP061950 31.0000 130.300 50 0 31.0000 130.300 TC 50 31.1632 130.992 2 45 31.0000 130.300 50 990 240 9 262
1950206N22143 1950 43 WP MM HELENE 1950-07-27 09:00:00 TS 30.9642 130.289 main 24 24 P________PPP__ WP061950 30.9985 130.065 45 0 30.9985 130.065 TC 45 31.0728 130.472 2 42 30.9985 130.065 45 992 240 2 240
1950206N22143 1950 43 WP MM HELENE 1950-07-27 12:00:00 TS 30.9556 130.300 main 24 22 O_O______OOO__ jtwc_wp WP061950 31.0000 130.100 40 0 30.6000 131.900 3 58 985 31.0000 130.100 TC 40 31.0000 130.100 2 40 31.0000 130.100 40 994 240 1 266
1950206N22143 1950 43 WP MM HELENE 1950-07-27 15:00:00 TS 30.9578 130.178 main 22 22 P_P______PPP__ WP061950 30.9626 129.935 37 0 30.7923 131.545 3 58 985 30.9626 129.935 TC 37 31.0224 129.882 2 36 30.9626 129.935 37 996 240 2 294
1950206N22143 1950 43 WP MM HELENE 1950-07-27 18:00:00 TS 31.0249 130.122 main 24 9 O_O______OPO__ jtwc_wp WP061950 31.0000 129.800 35 0 31.0000 131.100 3 58 985 31.0000 129.800 TC 35 31.1327 129.787 2 32 31.0000 129.800 35 998 240 3 334
1950206N22143 1950 43 WP MM HELENE 1950-07-27 21:00:00 TS 31.2246 130.022 main 18 18 P_P______PPP__ WP061950 31.2000 129.767 30 -1 31.2230 130.528 3 53 986 31.2000 129.767 TC 30 31.3017 129.773 2 28 31.2000 129.767 30 999 270 5 336
1950206N22143 1950 43 WP MM HELENE 1950-07-28 00:00:00 TS 31.4500 129.900 main 36 36 O_O______OOO__ jtwc_wp WP061950 31.5000 129.800 25 -1 31.4000 130.000 3 48 988 31.5000 129.800 TC 25 31.5000 129.800 1 25 31.5000 129.800 25 1000 300 4 310
1950206N22143 1950 43 WP MM HELENE 1950-07-28 03:00:00 TS 31.4646 129.690 main 52 52 __P___________ WP061950 -1 31.4646 129.690 3 48 989 TC 1 3 278
1950206N22143 1950 43 WP MM HELENE 1950-07-28 06:00:00 TS 31.5000 129.500 main 69 69 __O___________ -1 31.5000 129.500 3 48 990 1 4 291
1950206N22143 1950 43 WP MM HELENE 1950-07-28 09:00:00 TS 31.5925 129.298 main 87 87 __P___________ -1 31.5925 129.298 3 48 990 1 3 308
1950206N22143 1950 43 WP MM HELENE 1950-07-28 12:00:00 TS 31.7000 129.200 main 95 94 __O___________ -1 31.7000 129.200 3 48 990 2 347
1950206N22143 1950 43 WP MM HELENE 1950-07-28 15:00:00 TS 31.8075 129.247 main 94 75 __P___________ -1 31.8075 129.247 3 48 990 3 40
1950206N22143 1950 43 WP MM HELENE 1950-07-28 18:00:00 TS 31.9000 129.400 main 75 56 __O___________ -1 31.9000 129.400 3 48 991 4 58
1950206N22143 1950 43 WP MM HELENE 1950-07-28 21:00:00 TS 31.9951 129.607 main 56 37 __P___________ -1 31.9951 129.607 3 48 991 4 74
1950206N22143 1950 43 WP MM HELENE 1950-07-29 00:00:00 TS 32.0000 129.800 main 37 28 __O___________ -1 32.0000 129.800 3 48 991 3 122
1950206N22143 1950 43 WP MM HELENE 1950-07-29 03:00:00 TS 31.8299 129.918 main 28 28 __P___________ -1 31.8299 129.918 3 43 991 4 168
1950206N22143 1950 43 WP MM HELENE 1950-07-29 06:00:00 TS 31.6000 129.900 main 36 36 __O___________ -1 31.6000 129.900 2 38 992 5 204
1950206N22143 1950 43 WP MM HELENE 1950-07-29 09:00:00 TS 31.4126 129.702 main 48 48 __P___________ -1 31.4126 129.702 2 38 992 5 235
1950206N22143 1950 43 WP MM HELENE 1950-07-29 12:00:00 TS 31.3000 129.400 main 75 75 __O___________ -1 31.3000 129.400 2 38 993 5 260
1950206N22143 1950 43 WP MM HELENE 1950-07-29 15:00:00 TS 31.3199 129.115 main 104 104 __P___________ -1 31.3199 129.115 2 38 993 5 281
1950206N22143 1950 43 WP MM HELENE 1950-07-29 18:00:00 TS 31.4000 128.800 main 133 133 __O___________ -1 31.4000 128.800 2 38 994 6 283
1950206N22143 1950 43 WP MM HELENE 1950-07-29 21:00:00 TS 31.4500 128.457 main 161 161 __P___________ -1 31.4500 128.457 2 38 994 6 280
1950206N22143 1950 43 WP MM HELENE 1950-07-30 00:00:00 TS 31.5000 128.100 main 194 194 __O___________ -1 31.5000 128.100 2 38 995 6 279
1950206N22143 1950 43 WP MM HELENE 1950-07-30 03:00:00 TS 31.5499 127.750 main 215 193 __P___________ -1 31.5499 127.750 2 38 995 6 280
1950206N22143 1950 43 WP MM HELENE 1950-07-30 06:00:00 TS 31.6000 127.400 main 193 184 __O___________ -1 31.6000 127.400 2 38 995 6 280
1950206N22143 1950 43 WP MM HELENE 1950-07-30 09:00:00 TS 31.6498 127.065 main 184 167 __P___________ -1 31.6498 127.065 2 38 994 6 280
1950206N22143 1950 43 WP MM HELENE 1950-07-30 12:00:00 TS 31.7000 126.700 main 167 167 __O___________ -1 31.7000 126.700 2 38 993 7 278
1950206N22143 1950 43 WP MM HELENE 1950-07-30 15:00:00 TS 31.7500 126.265 main 167 156 __P___________ -1 31.7500 126.265 2 38 993 8 277
1950206N22143 1950 43 WP MM HELENE 1950-07-30 18:00:00 TS 31.8000 125.800 main 162 162 __O___________ -1 31.8000 125.800 2 38 993 8 278
1950206N22143 1950 43 WP MM HELENE 1950-07-30 21:00:00 TS 31.8575 125.335 main 172 172 __P___________ -1 31.8575 125.335 2 38 993 8 277
1950206N22143 1950 43 WP MM HELENE 1950-07-31 00:00:00 TS 31.9000 124.900 main 195 195 __O___________ -1 31.9000 124.900 2 38 993 7 274
1950206N22143 1950 43 WP MM HELENE 1950-07-31 03:00:00 TS 31.9073 124.527 main 222 218 __P___________ -1 31.9073 124.527 2 38 991 6 270
1950206N22143 1950 43 WP MM HELENE 1950-07-31 06:00:00 TS 31.9000 124.200 main 218 189 __O___________ -1 31.9000 124.200 2 38 990 5 269
1950206N22143 1950 43 WP MM HELENE 1950-07-31 09:00:00 TS 31.8999 123.893 main 189 161 __P___________ -1 31.8999 123.893 2 38 990 5 270
1950206N22143 1950 43 WP MM HELENE 1950-07-31 12:00:00 TS 31.9000 123.600 main 161 133 __O___________ -1 31.9000 123.600 2 38 990 5 269
1950206N22143 1950 43 WP MM HELENE 1950-07-31 15:00:00 TS 31.8923 123.315 main 133 106 __P___________ -1 31.8923 123.315 2 33 990 5 270
1950206N22143 1950 43 WP MM HELENE 1950-07-31 18:00:00 TS 31.9000 123.000 main 106 78 __O___________ -1 31.9000 123.000 1 29 990 6 274
1950206N22143 1950 43 WP MM HELENE 1950-07-31 21:00:00 TS 31.9348 122.637 main 69 43 __P___________ -1 31.9348 122.637 1 29 990 7 278
1950206N22143 1950 43 WP MM HELENE 1950-08-01 00:00:00 TS 32.0000 122.200 main 43 0 __O___________ -1 32.0000 122.200 1 29 990 8 278
1950206N22143 1950 43 WP MM HELENE 1950-08-01 03:00:00 TS 32.0473 121.687 main 0 0 __P___________ -1 32.0473 121.687 1 29 991 10 282
1950206N22143 1950 43 WP MM HELENE 1950-08-01 06:00:00 TS 32.2000 121.100 main 0 0 __O___________ -1 32.2000 121.100 1 29 992 11 295
1950206N22143 1950 43 WP MM HELENE 1950-08-01 09:00:00 TS 32.5399 120.465 main 0 0 __P___________ -1 32.5399 120.465 1 29 992 14 306
1950206N22143 1950 43 WP MM HELENE 1950-08-01 12:00:00 TS 33.0000 119.800 main 0 0 __O___________ -1 33.0000 119.800 1 29 992 15 310
1950206N22143 1950 43 WP MM HELENE 1950-08-01 15:00:00 TS 33.4852 119.105 main 0 0 __P___________ -1 33.4852 119.105 1 26 992 15 313
1950206N22143 1950 43 WP MM HELENE 1950-08-01 18:00:00 TS 34.0000 118.500 main 0 0 __O___________ -1 34.0000 118.500 1 23 992 13 321
1950206N22143 1950 43 WP MM HELENE 1950-08-01 21:00:00 TS 34.4993 118.111 main 0 0 __P___________ -1 34.4993 118.111 1 21 992 12 330
1950206N22143 1950 43 WP MM HELENE 1950-08-02 00:00:00 TS 35.0000 117.800 main 0 0 __O___________ -1 35.0000 117.800 0 19 992 12 330
1950206N22143 1950 43 WP MM HELENE 1950-08-02 03:00:00 TS 35.5000 117.400 main 0 0 __P___________ -1 35.5000 117.400 0 18 992 12 327
1950206N22143 1950 43 WP MM HELENE 1950-08-02 06:00:00 TS 36.0000 117.000 main 0 0 __O___________ -1 36.0000 117.000 0 17 992 12 328
1950206N22143 1950 43 WP MM HELENE 1950-08-02 09:00:00 TS 36.5000 116.613 main 0 0 __P___________ -1 36.5000 116.613 0 17 992 11 331
1950206N22143 1950 43 WP MM HELENE 1950-08-02 12:00:00 TS 37.0000 116.300 main 0 0 __O___________ -1 37.0000 116.300 0 17 992 11 338
1950206N22143 1950 43 WP MM HELENE 1950-08-02 15:00:00 TS 37.5149 116.097 main 0 0 __P___________ -1 37.5149 116.097 0 17 993 10 347
1950206N22143 1950 43 WP MM HELENE 1950-08-02 18:00:00 TS 38.0000 116.000 main 0 0 __O___________ -1 38.0000 116.000 0 17 995 9 355
1950206N22143 1950 43 WP MM HELENE 1950-08-02 21:00:00 TS 38.4200 115.980 main 0 0 __P___________ -1 38.4200 115.980 0 17 996 8 1
1950206N22143 1950 43 WP MM HELENE 1950-08-03 00:00:00 TS 38.8000 116.000 main 0 __O___________ -1 38.8000 116.000 0 17 998 8 0

デジタル台風データ・検索

IBTrACS Databaseについて

本データベースは、米国NOAAが公開する1842年以降の世界の熱帯低気圧のベストトラックデータアーカイブInternational Best Track Archive for Climate Stewardship (IBTrACS)を、ウェブで閲覧しやすい形式に変換したものです。

最終更新日:2021-12-03